createdAt,value
2018-09-26T00:01:38.318Z,95.93
2018-09-26T00:04:18.000Z,95.64
2018-09-26T00:06:47.155Z,95.26
2018-09-26T00:09:16.170Z,95.36
2018-09-26T00:11:45.230Z,95.46
2018-09-26T00:14:14.773Z,95.15
2018-09-26T00:16:43.759Z,95.09
2018-09-26T00:19:12.808Z,94.94
2018-09-26T00:21:41.927Z,95.20
2018-09-26T00:24:10.871Z,95.13
2018-09-26T00:26:39.940Z,96.08
2018-09-26T00:29:08.948Z,95.48
2018-09-26T00:31:38.810Z,95.19
2018-09-26T00:34:07.762Z,94.90
2018-09-26T00:36:36.780Z,95.08
2018-09-26T00:39:10.053Z,95.68
2018-09-26T00:41:39.302Z,95.72
2018-09-26T00:44:08.355Z,96.23
2018-09-26T00:46:37.325Z,96.55
2018-09-26T00:49:06.434Z,96.89
2018-09-26T00:51:35.508Z,96.84
2018-09-26T00:54:04.733Z,99.30
2018-09-26T00:56:34.171Z,99.33
2018-09-26T00:59:03.203Z,98.17
2018-09-26T01:01:32.397Z,98.23
2018-09-26T01:04:01.621Z,97.15
2018-09-26T01:06:30.844Z,96.48
2018-09-26T01:08:59.956Z,96.55
2018-09-26T01:11:29.338Z,97.58
2018-09-26T01:13:58.727Z,98.32
2018-09-26T01:16:27.931Z,99.21
2018-09-26T01:18:58.856Z,98.78
2018-09-26T01:21:27.963Z,98.54
2018-09-26T01:23:56.953Z,98.08
2018-09-26T01:26:25.973Z,98.41
2018-09-26T01:28:56.415Z,98.13
2018-09-26T01:31:25.787Z,98.19
2018-09-26T01:33:55.283Z,98.19
2018-09-26T01:36:24.578Z,97.81
2018-09-26T01:38:53.988Z,97.51
2018-09-26T01:41:23.271Z,97.00
2018-09-26T01:43:52.737Z,97.19
2018-09-26T01:46:22.403Z,97.07
2018-09-26T01:48:51.642Z,97.26
2018-09-26T01:51:21.317Z,97.37
2018-09-26T01:53:50.738Z,96.87
2018-09-26T01:56:20.106Z,96.68
2018-09-26T01:58:49.523Z,97.51
2018-09-26T02:01:18.516Z,98.17
2018-09-26T02:03:47.744Z,97.92
2018-09-26T02:06:17.089Z,97.39
2018-09-26T02:08:46.177Z,97.07
2018-09-26T02:11:15.260Z,97.37
2018-09-26T02:13:44.258Z,98.05
2018-09-26T02:16:13.267Z,98.80
2018-09-26T02:18:42.336Z,99.03
2018-09-26T02:21:11.340Z,98.51
2018-09-26T02:23:40.823Z,97.99
2018-09-26T02:26:10.192Z,98.16
2018-09-26T02:28:39.512Z,99.28
2018-09-26T02:31:09.290Z,99.31
2018-09-26T02:33:38.591Z,99.37
2018-09-26T02:36:07.742Z,99.78
2018-09-26T02:38:37.003Z,99.56
2018-09-26T02:41:06.107Z,100.00
2018-09-26T02:43:35.139Z,100.00
2018-09-26T02:46:04.366Z,99.87
2018-09-26T02:48:38.328Z,99.85
2018-09-26T02:51:07.414Z,100.00
2018-09-26T02:53:36.448Z,100.00
2018-09-26T02:56:05.428Z,99.55
2018-09-26T02:58:34.551Z,100.00
2018-09-26T03:01:03.761Z,99.96
2018-09-26T03:03:32.859Z,99.68
2018-09-26T03:06:01.922Z,99.04
2018-09-26T03:08:30.930Z,99.54
2018-09-26T03:10:59.924Z,99.01
2018-09-26T03:13:29.260Z,99.43
2018-09-26T03:15:58.291Z,99.74
2018-09-26T03:18:27.336Z,99.43
2018-09-26T03:20:56.501Z,99.46
2018-09-26T03:23:25.615Z,99.02
2018-09-26T03:25:55.041Z,98.62
2018-09-26T03:28:24.452Z,97.80
2018-09-26T03:30:53.720Z,98.63
2018-09-26T03:33:22.761Z,98.73
2018-09-26T03:35:51.756Z,98.40
2018-09-26T03:38:20.824Z,98.29
2018-09-26T03:40:50.138Z,98.36
2018-09-26T03:43:19.162Z,98.36
2018-09-26T03:45:48.274Z,99.30
2018-09-26T03:48:17.284Z,99.03
2018-09-26T03:50:46.348Z,99.00
2018-09-26T03:53:16.426Z,99.08
2018-09-26T03:55:46.012Z,99.24
2018-09-26T03:58:15.080Z,100.00
2018-09-26T04:00:44.071Z,99.99
2018-09-26T04:03:13.156Z,100.00
2018-09-26T04:05:42.306Z,100.00
2018-09-26T04:08:11.734Z,100.00
2018-09-26T04:10:40.746Z,99.87
2018-09-26T04:13:10.535Z,99.88
2018-09-26T04:15:54.501Z,100.00
2018-09-26T04:18:25.453Z,100.00
2018-09-26T04:20:55.397Z,100.00
2018-09-26T04:23:24.398Z,100.00
2018-09-26T04:25:53.506Z,100.00
2018-09-26T04:28:22.636Z,100.00
2018-09-26T04:30:51.890Z,100.00
2018-09-26T04:33:21.050Z,100.00
2018-09-26T04:35:50.121Z,100.00
2018-09-26T04:38:19.225Z,100.00
2018-09-26T04:40:48.322Z,100.00
2018-09-26T04:43:17.402Z,100.00
2018-09-26T04:45:46.747Z,100.00
2018-09-26T04:48:15.991Z,100.00
2018-09-26T04:50:45.124Z,99.47
2018-09-26T04:53:14.330Z,100.00
2018-09-26T04:55:43.583Z,99.79
2018-09-26T04:58:12.903Z,100.00
2018-09-26T05:00:42.298Z,100.00
2018-09-26T05:03:11.323Z,100.00
2018-09-26T05:05:40.436Z,100.00
2018-09-26T05:08:09.680Z,100.00
2018-09-26T05:10:38.809Z,100.00
2018-09-26T05:13:07.987Z,100.00
2018-09-26T05:15:37.381Z,100.00
2018-09-26T05:18:07.403Z,99.92
2018-09-26T05:20:36.696Z,99.69
2018-09-26T05:23:06.011Z,100.00
2018-09-26T05:25:35.709Z,99.64
2018-09-26T05:28:06.791Z,99.35
2018-09-26T05:30:36.420Z,98.32
2018-09-26T05:33:08.484Z,96.29
2018-09-26T05:35:37.538Z,94.09
2018-09-26T05:38:06.610Z,91.38
2018-09-26T05:40:35.655Z,82.64
2018-09-26T05:43:04.730Z,77.48
2018-09-26T05:45:33.943Z,68.18
2018-09-26T05:48:04.282Z,63.62
2018-09-26T05:50:33.774Z,61.12
2018-09-26T05:53:03.069Z,63.46
2018-09-26T05:55:32.354Z,71.36
2018-09-26T05:58:01.523Z,82.23
2018-09-26T06:00:30.823Z,91.31
2018-09-26T06:02:59.876Z,93.34
2018-09-26T06:05:29.061Z,94.66
2018-09-26T06:07:58.252Z,93.01
2018-09-26T06:10:27.554Z,92.15
2018-09-26T06:12:56.898Z,93.20
2018-09-26T06:15:26.296Z,92.87
2018-09-26T06:17:55.650Z,91.35
2018-09-26T06:20:25.055Z,91.02
2018-09-26T06:22:54.243Z,91.49
2018-09-26T06:25:23.305Z,91.02
2018-09-26T06:27:52.457Z,90.65
2018-09-26T06:30:21.598Z,89.94
2018-09-26T06:32:50.681Z,89.84
2018-09-26T06:35:19.641Z,88.72
2018-09-26T06:37:48.975Z,88.12
2018-09-26T06:40:18.175Z,88.31
2018-09-26T06:42:47.380Z,89.84
2018-09-26T06:45:16.628Z,89.31
2018-09-26T06:47:45.708Z,87.97
2018-09-26T06:50:14.872Z,87.40
2018-09-26T06:52:43.997Z,87.27
2018-09-26T06:55:13.110Z,87.00
2018-09-26T06:57:42.456Z,86.77
2018-09-26T07:00:12.512Z,87.42
2018-09-26T07:02:42.011Z,85.13
2018-09-26T07:05:11.731Z,83.66
2018-09-26T07:07:42.974Z,83.48
2018-09-26T07:10:12.695Z,83.70
2018-09-26T07:12:43.522Z,83.06
2018-09-26T07:15:13.140Z,83.15
2018-09-26T07:17:42.464Z,81.71
2018-09-26T07:20:11.696Z,79.59
2018-09-26T07:22:40.908Z,77.15
2018-09-26T07:25:10.431Z,78.99
2018-09-26T07:27:39.948Z,76.10
2018-09-26T07:30:09.564Z,77.32
2018-09-26T07:32:39.085Z,74.81
2018-09-26T07:35:08.477Z,73.93
2018-09-26T07:37:38.160Z,72.88
2018-09-26T07:40:07.827Z,73.58
2018-09-26T07:42:37.244Z,72.95
2018-09-26T07:45:06.981Z,72.03
2018-09-26T07:47:36.382Z,72.89
2018-09-26T07:50:05.821Z,69.19
2018-09-26T07:52:34.918Z,70.37
2018-09-26T07:55:03.963Z,67.00
2018-09-26T07:57:33.474Z,68.67
2018-09-26T08:00:02.859Z,66.34
2018-09-26T08:02:32.397Z,68.64
2018-09-26T08:05:02.194Z,66.30
2018-09-26T08:07:31.481Z,67.29
2018-09-26T08:10:00.980Z,66.43
2018-09-26T08:12:30.687Z,64.71
2018-09-26T08:15:00.807Z,66.43
2018-09-26T08:17:31.207Z,61.66
2018-09-26T08:20:01.791Z,65.87
2018-09-26T08:22:31.112Z,61.20
2018-09-26T08:25:00.576Z,62.50
2018-09-26T08:27:30.034Z,61.06
2018-09-26T08:29:59.112Z,61.66
2018-09-26T08:32:28.165Z,59.99
2018-09-26T08:34:57.542Z,57.81
2018-09-26T08:37:27.787Z,57.40
2018-09-26T08:39:57.233Z,53.37
2018-09-26T08:42:26.678Z,52.57
2018-09-26T08:44:55.859Z,49.56
2018-09-26T08:47:26.295Z,49.89
2018-09-26T08:49:56.568Z,50.15
2018-09-26T08:52:26.452Z,51.94
2018-09-26T08:54:55.784Z,52.35
2018-09-26T08:57:25.250Z,49.99
2018-09-26T08:59:54.748Z,47.99
2018-09-26T09:02:24.033Z,45.48
2018-09-26T09:04:54.065Z,47.17
2018-09-26T09:07:23.544Z,46.55
2018-09-26T09:09:52.512Z,45.79
2018-09-26T09:12:21.763Z,43.56
2018-09-26T09:14:51.252Z,45.35
2018-09-26T09:17:20.356Z,45.87
2018-09-26T09:19:49.765Z,46.35
2018-09-26T09:22:18.794Z,42.07
2018-09-26T09:24:48.165Z,42.76
2018-09-26T09:27:17.549Z,42.58
2018-09-26T09:29:46.617Z,43.83
2018-09-26T09:32:15.745Z,40.67
2018-09-26T09:34:44.731Z,44.64
2018-09-26T09:37:13.903Z,43.49
2018-09-26T09:39:43.078Z,41.85
2018-09-26T09:42:12.213Z,42.60
2018-09-26T09:44:41.665Z,42.18
2018-09-26T09:47:10.716Z,42.45
2018-09-26T09:49:39.687Z,41.10
2018-09-26T09:52:09.445Z,41.48
2018-09-26T09:54:38.494Z,41.64
2018-09-26T09:57:07.732Z,40.47
2018-09-26T09:59:36.789Z,42.66
2018-09-26T10:02:05.982Z,39.80
2018-09-26T10:04:35.353Z,39.38
2018-09-26T10:07:04.732Z,40.64
2018-09-26T10:09:33.692Z,38.95
2018-09-26T10:12:02.745Z,40.67
2018-09-26T10:14:31.822Z,39.02
2018-09-26T10:17:00.801Z,36.68
2018-09-26T10:19:29.961Z,39.47
2018-09-26T10:21:59.187Z,34.15
2018-09-26T10:24:29.134Z,37.47
2018-09-26T10:26:58.295Z,39.14
2018-09-26T10:29:27.323Z,38.77
2018-09-26T10:31:56.503Z,38.23
2018-09-26T10:34:25.758Z,37.28
2018-09-26T10:36:55.117Z,37.99
2018-09-26T10:39:24.161Z,36.97
2018-09-26T10:41:53.633Z,38.27
2018-09-26T10:44:23.298Z,38.53
2018-09-26T10:46:52.562Z,39.49
2018-09-26T10:49:22.380Z,36.48
2018-09-26T10:51:51.390Z,37.81
2018-09-26T10:54:20.838Z,38.33
2018-09-26T10:56:50.543Z,39.78
2018-09-26T10:59:20.411Z,37.14
2018-09-26T11:01:49.663Z,38.89
2018-09-26T11:04:19.075Z,37.05
2018-09-26T11:06:48.507Z,37.81
2018-09-26T11:09:17.687Z,38.12
2018-09-26T11:11:46.676Z,37.13
2018-09-26T11:14:16.076Z,36.94
2018-09-26T11:16:45.514Z,34.60
2018-09-26T11:19:14.587Z,37.49
2018-09-26T11:21:43.969Z,34.91
2018-09-26T11:24:13.304Z,31.54
2018-09-26T11:26:42.736Z,31.73
2018-09-26T11:29:11.935Z,32.15
2018-09-26T11:31:41.014Z,32.67
2018-09-26T11:34:10.292Z,33.91
2018-09-26T11:36:39.665Z,33.17
2018-09-26T11:39:10.398Z,33.64
2018-09-26T11:41:39.514Z,32.56
2018-09-26T11:44:09.118Z,31.40
2018-09-26T11:46:38.734Z,30.93
2018-09-26T11:49:07.951Z,32.44
2018-09-26T11:51:37.057Z,31.88
2018-09-26T11:54:07.159Z,31.80
2018-09-26T11:56:36.139Z,30.00
2018-09-26T11:59:05.172Z,32.20
2018-09-26T12:01:34.268Z,32.14
2018-09-26T12:04:03.501Z,31.78
2018-09-26T12:06:32.574Z,31.54
2018-09-26T12:09:01.655Z,31.81
2018-09-26T12:11:30.892Z,31.27
2018-09-26T12:13:59.979Z,33.15
2018-09-26T12:16:29.081Z,32.79
2018-09-26T12:18:58.146Z,32.46
2018-09-26T12:21:30.539Z,33.98
2018-09-26T12:23:56.992Z,33.50
2018-09-26T12:26:26.249Z,32.06
2018-09-26T12:28:55.330Z,32.58
2018-09-26T12:31:24.483Z,31.20
2018-09-26T12:33:53.606Z,28.78
2018-09-26T12:36:22.816Z,29.66
2018-09-26T12:38:52.014Z,28.25
2018-09-26T12:41:21.129Z,30.05
2018-09-26T12:43:56.498Z,30.60
2018-09-26T12:46:25.798Z,30.74
2018-09-26T12:48:54.841Z,31.30
2018-09-26T12:51:23.853Z,30.69
2018-09-26T12:53:53.104Z,31.11
2018-09-26T12:56:22.161Z,31.16
2018-09-26T12:58:51.261Z,32.02
2018-09-26T13:01:20.473Z,33.62
2018-09-26T13:03:49.598Z,33.35
2018-09-26T13:06:19.026Z,34.48
2018-09-26T13:08:48.051Z,35.19
2018-09-26T13:11:18.324Z,35.37
2018-09-26T13:13:47.425Z,35.97
2018-09-26T13:16:16.658Z,34.33
2018-09-26T13:18:45.932Z,34.18
2018-09-26T13:21:15.223Z,34.43
2018-09-26T13:23:44.929Z,34.28
2018-09-26T13:26:14.248Z,35.10
2018-09-26T13:28:45.823Z,33.11
2018-09-26T13:31:16.159Z,35.55
2018-09-26T13:33:45.316Z,37.32
2018-09-26T13:36:14.766Z,37.01
2018-09-26T13:38:43.840Z,35.91
2018-09-26T13:41:12.896Z,35.83
2018-09-26T13:43:42.000Z,36.89
2018-09-26T13:46:11.199Z,36.18
2018-09-26T13:48:40.164Z,37.56
2018-09-26T13:51:09.249Z,36.14
2018-09-26T13:53:38.240Z,39.28
2018-09-26T13:56:08.764Z,41.45
2018-09-26T13:58:37.798Z,40.18
2018-09-26T14:01:06.867Z,40.78
2018-09-26T14:03:35.903Z,41.75
2018-09-26T14:06:04.971Z,41.60
2018-09-26T14:08:34.071Z,40.05
2018-09-26T14:11:03.034Z,41.02
2018-09-26T14:13:32.106Z,40.30
2018-09-26T14:16:01.207Z,40.78
2018-09-26T14:18:30.184Z,41.56
2018-09-26T14:20:59.177Z,41.99
2018-09-26T14:23:28.421Z,43.34
2018-09-26T14:25:57.476Z,42.43
2018-09-26T14:28:26.682Z,43.63
2018-09-26T14:30:55.722Z,43.70
2018-09-26T14:33:24.820Z,45.13
2018-09-26T14:35:53.809Z,44.74
2018-09-26T14:38:23.000Z,46.01
2018-09-26T14:40:52.140Z,46.75
2018-09-26T14:43:21.170Z,47.62
2018-09-26T14:45:50.336Z,47.77
2018-09-26T14:48:19.412Z,47.29
2018-09-26T14:50:48.545Z,47.96
2018-09-26T14:53:17.655Z,49.26
2018-09-26T14:55:46.678Z,48.92
2018-09-26T14:58:15.908Z,49.69
2018-09-26T15:00:44.887Z,49.21
2018-09-26T15:03:13.938Z,49.19
2018-09-26T15:05:42.992Z,51.94
2018-09-26T15:08:12.005Z,50.93
2018-09-26T15:10:41.105Z,54.00
2018-09-26T15:13:10.444Z,54.00
2018-09-26T15:15:39.572Z,55.81
2018-09-26T15:18:08.639Z,55.53
2018-09-26T15:20:37.761Z,55.42
2018-09-26T15:23:06.960Z,56.82
2018-09-26T15:25:36.024Z,57.14
2018-09-26T15:28:05.736Z,58.81
2018-09-26T15:30:34.819Z,57.83
2018-09-26T15:33:03.870Z,57.19
2018-09-26T15:35:32.908Z,59.99
2018-09-26T15:38:01.980Z,60.84
2018-09-26T15:40:31.012Z,60.03
2018-09-26T15:43:00.200Z,61.56
2018-09-26T15:45:29.744Z,62.32
2018-09-26T15:47:59.240Z,60.11
2018-09-26T15:50:28.303Z,60.24
2018-09-26T15:52:57.403Z,60.26
2018-09-26T15:55:26.603Z,60.31
2018-09-26T15:57:55.688Z,60.85
2018-09-26T16:00:24.889Z,58.60
2018-09-26T16:02:54.799Z,57.62
2018-09-26T16:05:23.903Z,57.74
2018-09-26T16:07:53.082Z,56.35
2018-09-26T16:10:22.291Z,57.78
2018-09-26T16:12:51.304Z,60.66
2018-09-26T16:15:20.345Z,62.19
2018-09-26T16:17:49.509Z,61.97
2018-09-26T16:20:19.485Z,62.43
2018-09-26T16:22:48.592Z,62.23
2018-09-26T16:25:17.728Z,62.88
2018-09-26T16:27:46.893Z,63.09
2018-09-26T16:30:16.073Z,63.83
2018-09-26T16:32:46.341Z,65.42
2018-09-26T16:35:15.357Z,65.41
2018-09-26T16:37:46.303Z,65.29
2018-09-26T16:40:15.588Z,64.58
2018-09-26T16:42:44.672Z,64.84
2018-09-26T16:45:14.973Z,66.54
2018-09-26T16:47:44.124Z,67.34
2018-09-26T16:50:13.220Z,65.20
2018-09-26T16:52:42.419Z,66.57
2018-09-26T16:55:11.392Z,66.05
2018-09-26T16:57:40.387Z,67.17
2018-09-26T17:00:09.516Z,69.79
2018-09-26T17:02:38.533Z,67.47
2018-09-26T17:05:07.746Z,68.91
2018-09-26T17:07:36.846Z,67.68
2018-09-26T17:10:06.368Z,68.73
2018-09-26T17:12:35.554Z,68.97
2018-09-26T17:15:04.991Z,69.55
2018-09-26T17:17:34.812Z,71.24
2018-09-26T17:20:03.878Z,71.73
2018-09-26T17:22:32.943Z,71.81
2018-09-26T17:25:01.965Z,73.93
2018-09-26T17:27:31.374Z,74.27
2018-09-26T17:30:00.460Z,73.37
2018-09-26T17:32:29.701Z,75.03
2018-09-26T17:34:58.733Z,75.54
2018-09-26T17:37:27.756Z,75.79
2018-09-26T17:39:56.813Z,75.26
2018-09-26T17:42:26.050Z,75.55
2018-09-26T17:44:55.772Z,76.15
2018-09-26T17:47:24.913Z,76.02
2018-09-26T17:49:53.948Z,75.88
2018-09-26T17:52:23.140Z,75.99
2018-09-26T17:54:52.070Z,76.12
2018-09-26T17:57:21.188Z,79.28
2018-09-26T17:59:50.229Z,78.76
2018-09-26T18:02:19.441Z,77.96
2018-09-26T18:04:49.288Z,79.20
2018-09-26T18:07:18.323Z,78.71
2018-09-26T18:09:47.297Z,79.75
2018-09-26T18:12:16.435Z,79.99
2018-09-26T18:14:45.513Z,78.91
2018-09-26T18:17:14.644Z,80.23
2018-09-26T18:19:43.636Z,80.63
2018-09-26T18:22:12.910Z,80.37
2018-09-26T18:24:41.887Z,80.41
2018-09-26T18:27:11.569Z,81.63
2018-09-26T18:29:40.700Z,82.29
2018-09-26T18:32:09.766Z,81.29
2018-09-26T18:34:38.935Z,81.05
2018-09-26T18:37:08.108Z,81.25
2018-09-26T18:39:37.318Z,83.17
2018-09-26T18:42:07.000Z,83.34
2018-09-26T18:44:36.202Z,82.58
2018-09-26T18:47:05.273Z,84.37
2018-09-26T18:49:35.469Z,85.32
2018-09-26T18:52:04.725Z,85.81
2018-09-26T18:54:33.910Z,85.83
2018-09-26T18:57:03.111Z,84.88
2018-09-26T18:59:32.629Z,85.76
2018-09-26T19:02:01.680Z,85.76
2018-09-26T19:04:30.911Z,85.36
2018-09-26T19:06:59.948Z,85.39
2018-09-26T19:09:29.279Z,84.96
2018-09-26T19:11:58.431Z,85.49
2018-09-26T19:14:27.496Z,85.26
2018-09-26T19:16:56.612Z,85.80
2018-09-26T19:19:26.779Z,87.65
2018-09-26T19:21:56.221Z,86.81
2018-09-26T19:24:25.682Z,86.41
2018-09-26T19:26:55.251Z,87.92
2018-09-26T19:29:25.254Z,88.23
2018-09-26T19:31:54.400Z,87.92
2018-09-26T19:34:23.455Z,89.31
2018-09-26T19:36:52.587Z,90.59
2018-09-26T19:39:21.733Z,89.23
2018-09-26T19:41:50.936Z,89.61
2018-09-26T19:44:20.030Z,89.05
2018-09-26T19:46:49.087Z,89.40
2018-09-26T19:49:18.509Z,89.60
2018-09-26T19:51:47.994Z,88.68
2018-09-26T19:59:42.262Z,90.49
2018-09-26T20:02:11.445Z,90.38
2018-09-26T20:04:40.596Z,89.03
2018-09-26T20:07:09.727Z,89.42
2018-09-26T20:09:38.769Z,91.98
2018-09-26T20:12:08.050Z,91.11
2018-09-26T20:14:37.404Z,91.52
2018-09-26T20:17:06.743Z,91.55
2018-09-26T20:19:35.785Z,91.07
2018-09-26T20:22:05.261Z,90.87
2018-09-26T20:24:34.244Z,90.04
2018-09-26T20:30:11.254Z,89.83
2018-09-26T20:32:40.365Z,91.02
2018-09-26T20:35:09.452Z,90.26
2018-09-26T20:37:38.718Z,91.53
2018-09-26T20:40:07.951Z,91.78
2018-09-26T20:42:36.931Z,92.92
2018-09-26T20:45:06.534Z,93.45
2018-09-26T20:47:35.786Z,93.66
2018-09-26T20:50:06.771Z,92.73
2018-09-26T20:52:36.330Z,94.01
2018-09-26T20:55:05.776Z,93.73
2018-09-26T20:57:34.827Z,92.81
2018-09-26T21:00:04.482Z,92.37
2018-09-26T21:02:33.664Z,92.85
2018-09-26T21:05:03.803Z,92.20
2018-09-26T21:07:33.402Z,91.92
2018-09-26T21:10:03.090Z,91.63
2018-09-26T21:12:33.404Z,91.80
2018-09-26T21:15:02.507Z,92.79
2018-09-26T21:17:32.224Z,92.49
2018-09-26T21:20:01.316Z,91.82
2018-09-26T21:22:30.419Z,91.91
2018-09-26T21:24:59.938Z,93.46
2018-09-26T21:27:29.087Z,95.47
2018-09-26T21:29:58.217Z,92.42
2018-09-26T21:32:27.324Z,93.10
2018-09-26T21:34:57.632Z,93.50
2018-09-26T21:37:26.861Z,93.96
2018-09-26T21:39:56.117Z,95.67
2018-09-26T21:42:25.276Z,95.11
2018-09-26T21:44:54.382Z,94.25
2018-09-26T21:47:24.329Z,93.47
2018-09-26T21:49:53.489Z,92.86
2018-09-26T21:52:22.450Z,92.70
2018-09-26T21:54:51.620Z,93.43
2018-09-26T21:57:20.807Z,92.50
2018-09-26T21:59:49.842Z,92.80
2018-09-26T22:02:19.057Z,93.57
2018-09-26T22:04:48.043Z,92.95
2018-09-26T22:07:17.133Z,93.76
2018-09-26T22:09:46.164Z,92.86
2018-09-26T22:12:15.341Z,92.03
2018-09-26T22:14:44.409Z,92.47
2018-09-26T22:17:13.435Z,92.46
2018-09-26T22:19:42.510Z,92.78
2018-09-26T22:22:11.511Z,93.12
2018-09-26T22:24:40.736Z,92.88
2018-09-26T22:27:09.777Z,93.47
2018-09-26T22:29:38.940Z,93.90
2018-09-26T22:32:07.955Z,93.68
2018-09-26T22:34:37.033Z,93.73
2018-09-26T22:37:06.151Z,93.87
2018-09-26T22:39:35.144Z,93.59
2018-09-26T22:42:04.125Z,94.58
2018-09-26T22:44:33.155Z,95.04
2018-09-26T22:47:02.373Z,93.91
2018-09-26T22:49:31.454Z,95.05
2018-09-26T22:52:00.635Z,94.68
2018-09-26T22:54:29.696Z,94.68
2018-09-26T22:56:58.773Z,94.67
2018-09-26T22:59:27.854Z,94.32
2018-09-26T23:01:56.902Z,94.39
2018-09-26T23:04:26.029Z,93.77
2018-09-26T23:06:55.048Z,94.14
2018-09-26T23:09:24.146Z,93.86
2018-09-26T23:11:53.428Z,94.34
2018-09-26T23:14:22.472Z,94.65
2018-09-26T23:16:51.657Z,94.68
2018-09-26T23:19:20.827Z,93.69
2018-09-26T23:21:49.886Z,95.30
2018-09-26T23:24:18.876Z,95.15
2018-09-26T23:26:47.909Z,94.81
2018-09-26T23:29:16.934Z,95.34
2018-09-26T23:31:46.001Z,94.51
2018-09-26T23:34:15.159Z,95.01
2018-09-26T23:36:44.599Z,95.59
2018-09-26T23:39:15.132Z,95.93
2018-09-26T23:41:44.720Z,96.79
2018-09-26T23:44:14.168Z,95.92
2018-09-26T23:46:43.641Z,96.28
2018-09-26T23:49:12.910Z,96.01
2018-09-26T23:51:42.288Z,96.55
2018-09-26T23:54:11.740Z,95.49
2018-09-26T23:56:41.070Z,95.20
2018-09-26T23:59:10.377Z,96.18
